Time;durP1;ratioP1;P1;durP2;ratioP2;P2;SDS_P1;SDS_P2;PMS_P1;PMS_P2;Temp;Humidity;BMP_temperature;BMP_pressure;BME280_temperature;BME280_humidity;BME280_pressure;Samples;Min_cycle;Max_cycle;Signal;HPM_P1;HPM_P2
2023/08/06 00:01:14;;;;;;;2.85;1.95;;;;;;;;;;5054921;28;20203;-70
2023/08/06 00:03:41;;;;;;;2.05;1.85;;;;;;;;;;5055047;28;20217;-69
2023/08/06 00:06:08;;;;;;;3.47;2.03;;;;;;;;;;5055897;28;20203;-69
2023/08/06 00:08:35;;;;;;;2.17;1.98;;;;;;;;;;5058924;28;20232;-68
2023/08/06 00:11:03;;;;;;;4.35;2.00;;;;;;;;;;5058969;28;20211;-69
2023/08/06 00:13:30;;;;;;;3.25;2.10;;;;;;;;;;5059819;28;20217;-70
2023/08/06 00:16:09;;;;;;;3.15;2.40;;;;;;;;;;5060400;28;20211;-70
2023/08/06 00:18:36;;;;;;;3.10;2.70;;;;;;;;;;5060206;28;20275;-70
2023/08/06 00:21:03;;;;;;;5.70;2.33;;;;;;;;;;5058482;28;20207;-69
2023/08/06 00:23:30;;;;;;;3.45;2.13;;;;;;;;;;5053687;28;20215;-69
2023/08/06 00:25:57;;;;;;;3.83;2.30;;;;;;;;;;5056260;28;20212;-70
2023/08/06 00:28:25;;;;;;;3.60;2.28;;;;;;;;;;5060735;28;20294;-66
2023/08/06 00:30:54;;;;;;;3.92;2.50;;;;;;;;;;5055001;28;20238;-65
2023/08/06 00:33:22;;;;;;;3.58;2.20;;;;;;;;;;5056330;28;20208;-66
2023/08/06 00:35:49;;;;;;;4.72;2.45;;;;;;;;;;5054234;28;20211;-66
2023/08/06 00:38:17;;;;;;;2.83;2.55;;;;;;;;;;5054812;28;20207;-66
2023/08/06 00:40:44;;;;;;;2.33;2.05;;;;;;;;;;5054347;28;20209;-66
2023/08/06 00:43:11;;;;;;;3.13;2.20;;;;;;;;;;5054535;28;20215;-65
2023/08/06 00:45:39;;;;;;;3.33;1.95;;;;;;;;;;5061766;28;20211;-66
2023/08/06 00:48:07;;;;;;;5.70;2.30;;;;;;;;;;5055719;28;20218;-65
2023/08/06 00:50:35;;;;;;;4.50;2.70;;;;;;;;;;5054569;28;20223;-65
2023/08/06 00:53:03;;;;;;;5.85;2.40;;;;;;;;;;5057680;28;20204;-65
2023/08/06 00:55:30;;;;;;;4.18;2.60;;;;;;;;;;5054219;28;20235;-65
2023/08/06 00:57:57;;;;;;;4.38;2.60;;;;;;;;;;5059164;28;20211;-65
2023/08/06 01:00:25;;;;;;;2.47;2.05;;;;;;;;;;5063180;28;20210;-65
2023/08/06 01:02:53;;;;;;;4.45;2.15;;;;;;;;;;5054831;28;20213;-66
2023/08/06 01:05:21;;;;;;;3.65;1.90;;;;;;;;;;5057385;28;20214;-66
2023/08/06 01:07:53;;;;;;;2.00;1.55;;;;;;;;;;5060829;28;20218;-65
2023/08/06 01:10:25;;;;;;;3.17;1.65;;;;;;;;;;5063064;28;20340;-65
2023/08/06 01:12:56;;;;;;;3.97;1.80;;;;;;;;;;5052234;28;20214;-66
2023/08/06 01:15:25;;;;;;;3.70;1.88;;;;;;;;;;5053276;28;20215;-65
2023/08/06 01:17:52;;;;;;;6.13;2.10;;;;;;;;;;5060665;28;20209;-66
2023/08/06 01:20:19;;;;;;;4.93;1.85;;;;;;;;;;5063701;28;20207;-65
2023/08/06 01:22:48;;;;;;;2.92;1.60;;;;;;;;;;5063996;28;20210;-65
2023/08/06 01:25:17;;;;;;;2.80;1.73;;;;;;;;;;5051688;28;20211;-65
2023/08/06 01:27:46;;;;;;;2.58;1.55;;;;;;;;;;5057662;28;20215;-66
2023/08/06 01:30:14;;;;;;;4.60;1.85;;;;;;;;;;5053756;28;20223;-65
2023/08/06 01:32:44;;;;;;;5.72;1.92;;;;;;;;;;5057457;28;20425;-65
2023/08/06 01:35:12;;;;;;;2.63;1.23;;;;;;;;;;5064446;28;20213;-66
2023/08/06 01:37:40;;;;;;;3.67;1.40;;;;;;;;;;5057835;28;20214;-66
2023/08/06 01:40:11;;;;;;;3.75;1.98;;;;;;;;;;5057779;28;20226;-65
2023/08/06 01:42:38;;;;;;;2.30;1.50;;;;;;;;;;5050359;28;20207;-65
2023/08/06 01:45:06;;;;;;;2.72;1.27;;;;;;;;;;5053337;28;20199;-65
2023/08/06 01:47:33;;;;;;;1.48;1.10;;;;;;;;;;5053330;28;20215;-65
2023/08/06 01:50:01;;;;;;;1.95;1.10;;;;;;;;;;5053141;28;20219;-65
2023/08/06 01:52:28;;;;;;;2.35;1.30;;;;;;;;;;5052853;28;20207;-65
2023/08/06 01:54:55;;;;;;;1.30;0.90;;;;;;;;;;5052517;28;20212;-65
2023/08/06 01:57:24;;;;;;;1.50;0.90;;;;;;;;;;5061756;28;20211;-65
2023/08/06 01:59:51;;;;;;;1.83;0.93;;;;;;;;;;5054953;28;20298;-64
2023/08/06 02:02:18;;;;;;;2.88;0.98;;;;;;;;;;5053107;28;20215;-64
2023/08/06 02:04:45;;;;;;;1.25;1.02;;;;;;;;;;5054797;28;20209;-64
2023/08/06 02:07:12;;;;;;;1.48;0.77;;;;;;;;;;5056885;28;20215;-65
2023/08/06 02:09:40;;;;;;;1.20;0.80;;;;;;;;;;5066108;28;20233;-69
2023/08/06 02:12:07;;;;;;;2.63;0.70;;;;;;;;;;5066254;28;20211;-68
2023/08/06 02:14:36;;;;;;;1.10;0.85;;;;;;;;;;5052595;28;20261;-68
2023/08/06 02:17:03;;;;;;;2.67;0.80;;;;;;;;;;5058815;28;20203;-68
2023/08/06 02:19:30;;;;;;;1.02;0.70;;;;;;;;;;5066706;28;20199;-69
2023/08/06 02:21:58;;;;;;;2.13;0.90;;;;;;;;;;5066387;28;20214;-68
2023/08/06 02:24:25;;;;;;;3.55;0.77;;;;;;;;;;5067076;28;20219;-68
2023/08/06 02:26:55;;;;;;;1.23;0.77;;;;;;;;;;5067297;28;20215;-68
2023/08/06 02:29:22;;;;;;;1.33;0.70;;;;;;;;;;5066779;28;20207;-68
2023/08/06 02:31:51;;;;;;;0.98;0.88;;;;;;;;;;5057784;28;20202;-69
2023/08/06 02:34:18;;;;;;;1.95;0.70;;;;;;;;;;5062676;28;20214;-68
2023/08/06 02:36:45;;;;;;;0.70;0.70;;;;;;;;;;5067783;28;20223;-69
2023/08/06 02:39:12;;;;;;;1.85;0.70;;;;;;;;;;5068339;28;20214;-69
2023/08/06 02:41:39;;;;;;;0.70;0.70;;;;;;;;;;5068171;28;20211;-70
2023/08/06 02:44:06;;;;;;;1.15;0.70;;;;;;;;;;5068341;28;20232;-69
2023/08/06 02:46:34;;;;;;;2.30;0.90;;;;;;;;;;5062364;28;20214;-69
2023/08/06 02:49:02;;;;;;;1.92;0.90;;;;;;;;;;5048449;28;20207;-68
2023/08/06 02:51:29;;;;;;;0.93;0.77;;;;;;;;;;5063308;28;20527;-68
2023/08/06 02:53:56;;;;;;;1.67;0.85;;;;;;;;;;5051963;28;20212;-69
2023/08/06 02:56:23;;;;;;;0.60;0.60;;;;;;;;;;5051689;28;20239;-70
2023/08/06 02:58:51;;;;;;;0.93;0.70;;;;;;;;;;5059567;28;20213;-69
2023/08/06 03:01:18;;;;;;;0.63;0.60;;;;;;;;;;5069636;28;20209;-69
2023/08/06 03:03:45;;;;;;;1.17;0.70;;;;;;;;;;5069130;28;20206;-69
2023/08/06 03:06:13;;;;;;;0.88;0.70;;;;;;;;;;5068231;28;20296;-70
2023/08/06 03:08:42;;;;;;;1.63;0.70;;;;;;;;;;5051451;28;20218;-69
2023/08/06 03:11:09;;;;;;;0.77;0.77;;;;;;;;;;5051731;28;20232;-69
2023/08/06 03:13:36;;;;;;;1.88;0.90;;;;;;;;;;5051542;28;20212;-69
2023/08/06 03:16:03;;;;;;;1.77;0.80;;;;;;;;;;5051385;28;20225;-69
2023/08/06 03:18:30;;;;;;;0.82;0.52;;;;;;;;;;5051841;28;20218;-64
2023/08/06 03:20:57;;;;;;;1.52;0.82;;;;;;;;;;5057044;28;20217;-64
2023/08/06 03:23:26;;;;;;;2.05;0.70;;;;;;;;;;5064490;28;20204;-64
2023/08/06 03:25:53;;;;;;;2.15;0.60;;;;;;;;;;5070942;28;20214;-64
2023/08/06 03:28:22;;;;;;;0.77;0.70;;;;;;;;;;5069651;28;20232;-65
2023/08/06 03:30:49;;;;;;;1.33;0.70;;;;;;;;;;5069817;28;20222;-64
2023/08/06 03:33:16;;;;;;;1.73;0.80;;;;;;;;;;5051037;28;20207;-64
2023/08/06 03:35:43;;;;;;;3.90;1.10;;;;;;;;;;5051745;28;20211;-64
2023/08/06 03:38:10;;;;;;;1.30;1.10;;;;;;;;;;5051270;28;20211;-64
2023/08/06 03:40:39;;;;;;;1.50;1.00;;;;;;;;;;5050645;28;20199;-64
2023/08/06 03:43:06;;;;;;;2.40;1.00;;;;;;;;;;5051633;28;20215;-65
2023/08/06 03:45:33;;;;;;;1.17;0.95;;;;;;;;;;5051105;28;20211;-64
2023/08/06 03:48:00;;;;;;;2.55;0.88;;;;;;;;;;5051510;28;20234;-64
2023/08/06 03:50:27;;;;;;;3.35;1.10;;;;;;;;;;5051601;28;20226;-63
2023/08/06 03:52:54;;;;;;;1.42;1.08;;;;;;;;;;5051461;28;20223;-64
2023/08/06 03:55:22;;;;;;;1.70;1.00;;;;;;;;;;5052455;28;20245;-65
2023/08/06 03:57:50;;;;;;;1.33;1.17;;;;;;;;;;5054400;28;20222;-64
2023/08/06 04:00:17;;;;;;;2.90;1.20;;;;;;;;;;5051055;28;20209;-64
2023/08/06 04:02:44;;;;;;;2.75;1.23;;;;;;;;;;5052219;28;20212;-64
2023/08/06 04:05:12;;;;;;;1.98;1.40;;;;;;;;;;5049819;28;20207;-64
2023/08/06 04:07:39;;;;;;;2.33;1.60;;;;;;;;;;5053288;28;20211;-64
2023/08/06 04:10:07;;;;;;;1.83;1.48;;;;;;;;;;5053737;28;20229;-64
2023/08/06 04:12:36;;;;;;;1.60;1.50;;;;;;;;;;5053244;28;20211;-64
2023/08/06 04:15:05;;;;;;;3.45;1.60;;;;;;;;;;5049244;28;20203;-64
2023/08/06 04:17:32;;;;;;;3.45;1.90;;;;;;;;;;5051527;28;20203;-64
2023/08/06 04:19:59;;;;;;;2.42;1.40;;;;;;;;;;5050985;28;20426;-64
2023/08/06 04:22:27;;;;;;;3.35;1.70;;;;;;;;;;5050884;28;20211;-65
2023/08/06 04:24:54;;;;;;;3.20;1.95;;;;;;;;;;5050602;28;20212;-65
2023/08/06 04:27:21;;;;;;;2.38;1.70;;;;;;;;;;5052802;28;20218;-64
2023/08/06 04:29:48;;;;;;;4.28;2.00;;;;;;;;;;5055296;28;20203;-70
2023/08/06 04:32:19;;;;;;;1.90;1.75;;;;;;;;;;5054553;28;20234;-70
2023/08/06 04:34:46;;;;;;;2.03;1.70;;;;;;;;;;5050850;28;20302;-69
2023/08/06 04:37:13;;;;;;;2.78;1.75;;;;;;;;;;5050665;28;20239;-69
2023/08/06 04:39:41;;;;;;;2.53;1.63;;;;;;;;;;5051297;28;20212;-71
2023/08/06 04:42:08;;;;;;;2.55;1.83;;;;;;;;;;5057218;28;20207;-69
2023/08/06 04:44:35;;;;;;;3.60;1.83;;;;;;;;;;5059743;28;20218;-70
2023/08/06 04:47:02;;;;;;;3.20;1.77;;;;;;;;;;5054454;28;20207;-69
2023/08/06 04:49:30;;;;;;;2.00;1.50;;;;;;;;;;5053573;28;20215;-71
2023/08/06 04:51:58;;;;;;;2.67;1.63;;;;;;;;;;5053551;28;20239;-69
2023/08/06 04:54:25;;;;;;;1.48;1.38;;;;;;;;;;5054589;28;20211;-69
2023/08/06 04:56:52;;;;;;;1.70;1.40;;;;;;;;;;5054042;28;20239;-69
2023/08/06 04:59:19;;;;;;;1.60;1.50;;;;;;;;;;5057498;28;20206;-70
2023/08/06 05:01:46;;;;;;;3.13;1.70;;;;;;;;;;5060513;28;20225;-71
2023/08/06 05:04:13;;;;;;;1.40;1.23;;;;;;;;;;5058145;28;20214;-70
2023/08/06 05:06:42;;;;;;;2.05;1.55;;;;;;;;;;5052837;28;20215;-70
2023/08/06 05:09:09;;;;;;;1.80;1.30;;;;;;;;;;5059734;28;20214;-71
2023/08/06 05:11:36;;;;;;;1.95;1.10;;;;;;;;;;5052454;28;20238;-69
2023/08/06 05:14:03;;;;;;;1.88;1.20;;;;;;;;;;5052765;28;20216;-71
2023/08/06 05:16:31;;;;;;;2.30;1.27;;;;;;;;;;5053872;28;20203;-70
2023/08/06 05:18:58;;;;;;;1.73;1.40;;;;;;;;;;5053772;28;20214;-69
2023/08/06 05:21:25;;;;;;;2.58;1.30;;;;;;;;;;5059409;28;20211;-68
2023/08/06 05:23:53;;;;;;;1.40;1.20;;;;;;;;;;5053360;28;20219;-70
2023/08/06 05:26:20;;;;;;;1.27;1.10;;;;;;;;;;5053585;28;20222;-70
2023/08/06 05:28:48;;;;;;;3.13;1.45;;;;;;;;;;5053855;28;20204;-71
2023/08/06 05:31:15;;;;;;;1.70;1.27;;;;;;;;;;5053183;28;20227;-70
2023/08/06 05:33:42;;;;;;;3.13;1.10;;;;;;;;;;5053741;28;20204;-70
2023/08/06 05:36:09;;;;;;;1.83;1.10;;;;;;;;;;5053634;28;20209;-70
2023/08/06 05:38:36;;;;;;;1.15;1.15;;;;;;;;;;5053906;28;20226;-71
2023/08/06 05:41:05;;;;;;;1.73;1.00;;;;;;;;;;5059643;28;20207;-70
2023/08/06 05:43:32;;;;;;;1.67;1.00;;;;;;;;;;5063052;28;20208;-68
2023/08/06 05:45:59;;;;;;;1.85;1.00;;;;;;;;;;5063249;28;20207;-69
2023/08/06 05:48:27;;;;;;;1.67;1.20;;;;;;;;;;5056942;28;20246;-69
2023/08/06 05:50:55;;;;;;;1.27;1.13;;;;;;;;;;5060703;28;20250;-69
2023/08/06 05:53:22;;;;;;;2.45;1.10;;;;;;;;;;5061989;28;20207;-69
2023/08/06 05:55:49;;;;;;;1.30;1.20;;;;;;;;;;5062005;28;20239;-68
2023/08/06 05:58:19;;;;;;;1.33;1.05;;;;;;;;;;5052549;28;20229;-71
2023/08/06 06:00:47;;;;;;;3.13;1.30;;;;;;;;;;5062941;28;20210;-70
2023/08/06 06:03:14;;;;;;;2.28;1.20;;;;;;;;;;5062868;28;20296;-69
2023/08/06 06:05:41;;;;;;;2.15;1.05;;;;;;;;;;5064518;28;20207;-70
2023/08/06 06:08:08;;;;;;;2.03;1.17;;;;;;;;;;5064520;28;20213;-69
2023/08/06 06:10:36;;;;;;;1.20;1.10;;;;;;;;;;5059915;28;20211;-71
2023/08/06 06:13:03;;;;;;;0.95;0.90;;;;;;;;;;5064663;28;20203;-70
2023/08/06 06:15:32;;;;;;;2.47;1.17;;;;;;;;;;5057376;28;20214;-70
2023/08/06 06:17:59;;;;;;;1.25;1.15;;;;;;;;;;5062949;28;20208;-71
2023/08/06 06:20:26;;;;;;;0.98;0.93;;;;;;;;;;5050347;28;20234;-70
2023/08/06 06:22:53;;;;;;;1.45;1.10;;;;;;;;;;5050367;28;20199;-70
2023/08/06 06:25:21;;;;;;;1.48;0.90;;;;;;;;;;5050047;28;20211;-70
2023/08/06 06:27:48;;;;;;;2.42;0.80;;;;;;;;;;5052438;28;20344;-68
2023/08/06 06:30:15;;;;;;;0.70;0.70;;;;;;;;;;5052137;28;20227;-70
2023/08/06 06:32:43;;;;;;;2.00;0.80;;;;;;;;;;5058856;28;20291;-69
2023/08/06 06:35:11;;;;;;;2.53;0.70;;;;;;;;;;5066219;28;20207;-69
2023/08/06 06:37:38;;;;;;;1.20;0.90;;;;;;;;;;5066351;28;20211;-69
2023/08/06 06:40:06;;;;;;;2.10;0.70;;;;;;;;;;5065788;28;20206;-71
2023/08/06 06:42:33;;;;;;;0.80;0.55;;;;;;;;;;5064335;28;20207;-71
2023/08/06 06:45:01;;;;;;;2.65;0.60;;;;;;;;;;5066693;28;20210;-70
2023/08/06 06:47:28;;;;;;;0.35;0.35;;;;;;;;;;5064489;28;20203;-71
2023/08/06 06:49:56;;;;;;;1.75;0.55;;;;;;;;;;5067145;28;20209;-66
2023/08/06 06:52:23;;;;;;;0.70;0.70;;;;;;;;;;5056310;28;20235;-64
2023/08/06 06:54:51;;;;;;;0.50;0.50;;;;;;;;;;5051599;28;20207;-66
2023/08/06 06:57:18;;;;;;;0.40;0.40;;;;;;;;;;5053692;28;20211;-65
2023/08/06 06:59:45;;;;;;;0.63;0.63;;;;;;;;;;5067739;28;20207;-64
2023/08/06 07:02:12;;;;;;;1.10;0.40;;;;;;;;;;5067631;28;20211;-66
2023/08/06 07:04:39;;;;;;;0.77;0.30;;;;;;;;;;5064911;28;20215;-64
2023/08/06 07:07:08;;;;;;;0.50;0.50;;;;;;;;;;5067912;28;20219;-65
2023/08/06 07:09:35;;;;;;;0.40;0.40;;;;;;;;;;5055372;28;20207;-67
2023/08/06 07:12:02;;;;;;;0.70;0.70;;;;;;;;;;5051809;28;20235;-64
2023/08/06 07:14:30;;;;;;;0.63;0.63;;;;;;;;;;5051799;28;20207;-65
2023/08/06 07:16:57;;;;;;;0.80;0.80;;;;;;;;;;5052152;28;20211;-64
2023/08/06 07:19:25;;;;;;;0.60;0.60;;;;;;;;;;5051760;28;20211;-64
2023/08/06 07:21:52;;;;;;;1.83;0.80;;;;;;;;;;5057573;28;20293;-64
2023/08/06 07:24:20;;;;;;;3.72;0.70;;;;;;;;;;5065771;28;20207;-64
2023/08/06 07:26:48;;;;;;;0.60;0.60;;;;;;;;;;5068953;28;20213;-65
2023/08/06 07:29:19;;;;;;;1.60;0.70;;;;;;;;;;5069701;28;20216;-64
2023/08/06 07:31:46;;;;;;;0.52;0.52;;;;;;;;;;5048184;28;20235;-64
2023/08/06 07:34:14;;;;;;;1.35;0.90;;;;;;;;;;5051198;28;20210;-66
2023/08/06 07:36:41;;;;;;;0.40;0.40;;;;;;;;;;5051257;28;20218;-64
2023/08/06 07:39:08;;;;;;;0.40;0.40;;;;;;;;;;5051157;28;20214;-65
2023/08/06 07:41:36;;;;;;;0.52;0.32;;;;;;;;;;5051817;28;20267;-64
2023/08/06 07:44:04;;;;;;;0.60;0.60;;;;;;;;;;5051811;28;20209;-65
2023/08/06 07:46:31;;;;;;;0.30;0.30;;;;;;;;;;5067972;28;20213;-64
2023/08/06 07:48:58;;;;;;;0.30;0.30;;;;;;;;;;5070633;28;20211;-64
2023/08/06 07:51:25;;;;;;;0.25;0.25;;;;;;;;;;5070826;28;20218;-65
2023/08/06 07:53:53;;;;;;;0.25;0.20;;;;;;;;;;5071509;28;20206;-64
2023/08/06 07:56:20;;;;;;;0.10;0.10;;;;;;;;;;5056938;28;20289;-64
2023/08/06 07:58:48;;;;;;;1.20;0.20;;;;;;;;;;5051689;28;20211;-68
2023/08/06 08:01:15;;;;;;;0.68;0.30;;;;;;;;;;5051146;28;20214;-70
2023/08/06 08:03:43;;;;;;;0.30;0.13;;;;;;;;;;5049578;28;20217;-69
2023/08/06 08:06:10;;;;;;;0.35;0.22;;;;;;;;;;5052365;28;20218;-70
2023/08/06 08:08:38;;;;;;;2.13;0.30;;;;;;;;;;5052549;28;20211;-69
2023/08/06 08:11:06;;;;;;;0.30;0.30;;;;;;;;;;5052345;28;20214;-69
2023/08/06 08:13:34;;;;;;;0.30;0.30;;;;;;;;;;5049890;28;20210;-69
2023/08/06 08:16:02;;;;;;;0.20;0.20;;;;;;;;;;5054000;28;20219;-71
2023/08/06 08:18:31;;;;;;;0.43;0.40;;;;;;;;;;5054927;28;20213;-69
2023/08/06 08:20:58;;;;;;;0.38;0.38;;;;;;;;;;5057371;28;20207;-68
2023/08/06 08:23:25;;;;;;;0.30;0.30;;;;;;;;;;5057031;28;20211;-68
2023/08/06 08:25:53;;;;;;;0.57;0.50;;;;;;;;;;5057449;28;20229;-69
2023/08/06 08:28:20;;;;;;;0.47;0.47;;;;;;;;;;5057040;28;20242;-68
2023/08/06 08:30:47;;;;;;;0.43;0.43;;;;;;;;;;5053519;28;20211;-69
2023/08/06 08:33:15;;;;;;;0.50;0.50;;;;;;;;;;5057525;28;20220;-68
2023/08/06 08:35:43;;;;;;;0.73;0.40;;;;;;;;;;5056941;28;20214;-69
2023/08/06 08:38:10;;;;;;;0.73;0.40;;;;;;;;;;5054494;28;20211;-70
2023/08/06 08:40:40;;;;;;;0.95;0.60;;;;;;;;;;5057570;28;20211;-70
2023/08/06 08:43:07;;;;;;;0.50;0.50;;;;;;;;;;5058120;28;20215;-69
2023/08/06 08:45:35;;;;;;;0.70;0.60;;;;;;;;;;5052375;28;20265;-69
2023/08/06 08:48:03;;;;;;;0.52;0.52;;;;;;;;;;5052240;28;20282;-69
2023/08/06 08:50:31;;;;;;;0.77;0.70;;;;;;;;;;5054739;28;20214;-68
2023/08/06 08:52:59;;;;;;;0.40;0.40;;;;;;;;;;5054453;28;20238;-69
2023/08/06 08:55:26;;;;;;;0.60;0.50;;;;;;;;;;5054015;28;20239;-69
2023/08/06 08:57:53;;;;;;;0.98;0.50;;;;;;;;;;5058977;28;20229;-67
2023/08/06 09:00:20;;;;;;;1.55;0.50;;;;;;;;;;5059395;28;20238;-69
2023/08/06 09:02:48;;;;;;;0.50;0.50;;;;;;;;;;5059459;28;20305;-69
2023/08/06 09:05:15;;;;;;;0.95;0.70;;;;;;;;;;5058304;28;20210;-68
2023/08/06 09:07:44;;;;;;;2.10;0.77;;;;;;;;;;5059785;28;20226;-68
2023/08/06 09:10:13;;;;;;;0.80;0.80;;;;;;;;;;5059848;28;20207;-64
2023/08/06 09:12:40;;;;;;;0.85;0.85;;;;;;;;;;5059601;28;20290;-64
2023/08/06 09:15:08;;;;;;;1.77;0.80;;;;;;;;;;5060639;28;20221;-64
2023/08/06 09:17:35;;;;;;;0.70;0.70;;;;;;;;;;5060076;28;20203;-65
2023/08/06 09:20:10;;;;;;;0.70;0.70;;;;;;;;;;5060399;28;20207;-64
2023/08/06 09:22:37;;;;;;;0.73;0.73;;;;;;;;;;5052624;28;20213;-64
2023/08/06 09:25:09;;;;;;;2.90;1.08;;;;;;;;;;5053470;28;20245;-63
2023/08/06 09:27:36;;;;;;;1.65;1.10;;;;;;;;;;5060661;28;20211;-64
2023/08/06 09:30:04;;;;;;;1.13;1.05;;;;;;;;;;5060416;28;20203;-64
2023/08/06 09:32:46;;;;;;;0.80;0.80;;;;;;;;;;5058384;28;20223;-64
2023/08/06 09:35:17;;;;;;;2.20;1.10;;;;;;;;;;5061326;28;20215;-65
2023/08/06 09:37:44;;;;;;;1.05;0.95;;;;;;;;;;5055985;28;20207;-65
2023/08/06 09:40:26;;;;;;;1.58;1.10;;;;;;;;;;5056504;28;20207;-68
2023/08/06 09:42:55;;;;;;;1.20;1.10;;;;;;;;;;5055003;28;20211;-65
2023/08/06 09:45:22;;;;;;;1.38;0.82;;;;;;;;;;5058440;28;20235;-65
2023/08/06 09:47:50;;;;;;;1.30;0.80;;;;;;;;;;5061903;28;20431;-65
2023/08/06 09:50:18;;;;;;;1.30;1.20;;;;;;;;;;5062236;28;20210;-65
2023/08/06 09:52:45;;;;;;;1.20;1.10;;;;;;;;;;5061288;28;20291;-65
2023/08/06 09:55:13;;;;;;;1.20;1.10;;;;;;;;;;5057575;28;20235;-64
2023/08/06 09:57:41;;;;;;;1.73;1.10;;;;;;;;;;5053076;28;20214;-65
2023/08/06 10:00:11;;;;;;;1.25;1.15;;;;;;;;;;5052768;28;20207;-65
2023/08/06 10:02:39;;;;;;;1.83;1.08;;;;;;;;;;5049448;28;20211;-65
2023/08/06 10:05:06;;;;;;;1.45;1.23;;;;;;;;;;5051626;28;20211;-64
2023/08/06 10:07:33;;;;;;;2.60;1.38;;;;;;;;;;5053359;28;20220;-65
2023/08/06 10:10:01;;;;;;;2.08;1.40;;;;;;;;;;5053074;28;20218;-65
2023/08/06 10:12:29;;;;;;;2.42;1.60;;;;;;;;;;5055993;28;20524;-65
2023/08/06 10:14:57;;;;;;;1.30;1.20;;;;;;;;;;5052494;28;20213;-65
2023/08/06 10:17:26;;;;;;;1.90;1.10;;;;;;;;;;5052510;28;20213;-65
2023/08/06 10:19:54;;;;;;;1.73;1.52;;;;;;;;;;5059612;28;20249;-70
2023/08/06 10:22:23;;;;;;;1.65;1.30;;;;;;;;;;5052606;28;20253;-70
2023/08/06 10:24:50;;;;;;;1.38;1.27;;;;;;;;;;5052380;28;20311;-70
2023/08/06 10:27:21;;;;;;;2.63;1.67;;;;;;;;;;5063761;28;20297;-70
2023/08/06 10:29:49;;;;;;;1.30;1.20;;;;;;;;;;5053703;28;20207;-70
2023/08/06 10:32:18;;;;;;;1.77;1.33;;;;;;;;;;5052693;28;20238;-69
2023/08/06 10:35:02;;;;;;;1.98;1.40;;;;;;;;;;5052229;28;20218;-69
2023/08/06 10:37:36;;;;;;;1.42;1.20;;;;;;;;;;5050904;28;20211;-69
2023/08/06 10:40:04;;;;;;;0.98;0.98;;;;;;;;;;5063429;28;20214;-69
2023/08/06 10:42:31;;;;;;;1.40;0.98;;;;;;;;;;5063788;28;20210;-70
2023/08/06 10:45:16;;;;;;;2.05;1.00;;;;;;;;;;5065695;28;20274;-70
2023/08/06 10:47:43;;;;;;;1.15;1.08;;;;;;;;;;5050903;28;20211;-68
2023/08/06 10:50:12;;;;;;;1.00;1.00;;;;;;;;;;5051961;28;20215;-69
2023/08/06 10:52:40;;;;;;;1.10;1.00;;;;;;;;;;5055806;28;20226;-70
2023/08/06 10:55:09;;;;;;;1.20;0.90;;;;;;;;;;5064817;28;20322;-69
2023/08/06 10:57:36;;;;;;;1.42;0.80;;;;;;;;;;5056136;28;20219;-69
2023/08/06 11:00:03;;;;;;;1.75;0.90;;;;;;;;;;5066020;28;20289;-71
2023/08/06 11:02:34;;;;;;;2.08;1.20;;;;;;;;;;5065467;28;20206;-68
2023/08/06 11:05:06;;;;;;;1.40;0.80;;;;;;;;;;5057774;28;20208;-70
2023/08/06 11:07:33;;;;;;;0.80;0.80;;;;;;;;;;5052408;28;20238;-71
2023/08/06 11:10:06;;;;;;;0.85;0.70;;;;;;;;;;5049273;28;20275;-70
2023/08/06 11:12:33;;;;;;;0.63;0.63;;;;;;;;;;5058960;28;20288;-71
2023/08/06 11:15:00;;;;;;;0.73;0.73;;;;;;;;;;5065306;28;20222;-70
2023/08/06 11:17:28;;;;;;;1.55;0.70;;;;;;;;;;5066788;28;20210;-68
2023/08/06 11:19:55;;;;;;;0.68;0.68;;;;;;;;;;5064852;28;20202;-70
2023/08/06 11:22:23;;;;;;;0.75;0.68;;;;;;;;;;5067559;28;20207;-71
2023/08/06 11:24:50;;;;;;;0.60;0.60;;;;;;;;;;5064126;28;20234;-69
2023/08/06 11:27:19;;;;;;;1.00;0.70;;;;;;;;;;5052594;28;20222;-70
2023/08/06 11:29:46;;;;;;;2.60;0.80;;;;;;;;;;5068068;28;20213;-69
2023/08/06 11:32:13;;;;;;;1.73;0.70;;;;;;;;;;5052672;28;20211;-69
2023/08/06 11:34:41;;;;;;;1.98;0.90;;;;;;;;;;5051462;28;20253;-70
2023/08/06 11:37:10;;;;;;;1.00;0.80;;;;;;;;;;5055362;28;20261;-69
2023/08/06 11:39:38;;;;;;;1.13;0.70;;;;;;;;;;5064375;28;20211;-72
2023/08/06 11:42:05;;;;;;;1.45;0.75;;;;;;;;;;5068498;28;20207;-70
2023/08/06 11:44:36;;;;;;;0.93;0.75;;;;;;;;;;5069137;28;20209;-71
2023/08/06 11:47:05;;;;;;;1.98;0.95;;;;;;;;;;5067964;28;20418;-71
2023/08/06 11:49:39;;;;;;;1.60;0.88;;;;;;;;;;5070547;28;20202;-70
2023/08/06 11:52:09;;;;;;;0.80;0.75;;;;;;;;;;5052783;28;20211;-70
2023/08/06 11:54:37;;;;;;;0.60;0.60;;;;;;;;;;5067699;28;20237;-70
2023/08/06 11:57:04;;;;;;;1.65;0.88;;;;;;;;;;5073996;28;20242;-70
2023/08/06 11:59:31;;;;;;;1.35;0.80;;;;;;;;;;5074044;28;20211;-71
2023/08/06 12:02:02;;;;;;;2.35;0.88;;;;;;;;;;5064872;28;20211;-71
2023/08/06 12:04:29;;;;;;;3.22;0.80;;;;;;;;;;5055215;28;20253;-70
2023/08/06 12:06:56;;;;;;;1.98;0.70;;;;;;;;;;5055023;28;20207;-72
2023/08/06 12:09:23;;;;;;;4.32;0.90;;;;;;;;;;5054999;28;20208;-71
2023/08/06 12:11:50;;;;;;;1.25;0.98;;;;;;;;;;5054513;28;20211;-71
2023/08/06 12:14:17;;;;;;;0.60;0.55;;;;;;;;;;5070048;28;20233;-71
2023/08/06 12:16:45;;;;;;;0.80;0.63;;;;;;;;;;5060503;28;20226;-70
2023/08/06 12:19:13;;;;;;;0.60;0.60;;;;;;;;;;5055150;28;20217;-71
2023/08/06 12:21:40;;;;;;;1.65;0.65;;;;;;;;;;5055436;28;20203;-70
2023/08/06 12:24:07;;;;;;;1.52;0.80;;;;;;;;;;5055376;28;20207;-70
2023/08/06 12:26:35;;;;;;;3.00;0.80;;;;;;;;;;5055729;28;20521;-70
2023/08/06 12:29:02;;;;;;;0.85;0.68;;;;;;;;;;5053331;28;20207;-71
2023/08/06 12:31:29;;;;;;;1.25;0.70;;;;;;;;;;5054572;28;20217;-70
2023/08/06 12:33:56;;;;;;;1.48;0.80;;;;;;;;;;5054590;28;20237;-70
2023/08/06 12:36:24;;;;;;;0.68;0.60;;;;;;;;;;5055193;28;20215;-71
2023/08/06 12:38:52;;;;;;;0.93;0.70;;;;;;;;;;5055946;28;20215;-71
2023/08/06 12:41:19;;;;;;;1.00;0.55;;;;;;;;;;5054295;28;20203;-71
2023/08/06 12:43:46;;;;;;;1.10;0.65;;;;;;;;;;5052726;28;20261;-70
2023/08/06 12:46:13;;;;;;;1.88;0.80;;;;;;;;;;5053642;28;20211;-70
2023/08/06 12:48:40;;;;;;;0.68;0.60;;;;;;;;;;5054382;28;20211;-71
2023/08/06 12:51:08;;;;;;;0.80;0.57;;;;;;;;;;5054421;28;20211;-72
2023/08/06 12:53:36;;;;;;;0.90;0.80;;;;;;;;;;5054033;28;20226;-70
2023/08/06 12:56:04;;;;;;;1.35;0.50;;;;;;;;;;5055557;28;20239;-70
2023/08/06 12:58:31;;;;;;;0.75;0.70;;;;;;;;;;5054532;28;20301;-70
2023/08/06 13:00:58;;;;;;;0.73;0.50;;;;;;;;;;5057163;28;20199;-74
2023/08/06 13:03:26;;;;;;;0.80;0.60;;;;;;;;;;5053343;28;20298;-72
2023/08/06 13:05:53;;;;;;;0.60;0.60;;;;;;;;;;5053588;28;20203;-71
2023/08/06 13:08:20;;;;;;;0.47;0.47;;;;;;;;;;5054190;28;20213;-70
2023/08/06 13:10:48;;;;;;;0.70;0.70;;;;;;;;;;5057467;28;20214;-72
2023/08/06 13:13:16;;;;;;;0.75;0.40;;;;;;;;;;5058247;28;20234;-71
2023/08/06 13:15:43;;;;;;;3.00;0.60;;;;;;;;;;5054641;28;20207;-70
2023/08/06 13:18:10;;;;;;;0.40;0.40;;;;;;;;;;5057853;28;20211;-72
2023/08/06 13:20:40;;;;;;;0.50;0.50;;;;;;;;;;5051434;28;20211;-70
2023/08/06 13:23:07;;;;;;;0.80;0.60;;;;;;;;;;5053993;28;20207;-73
2023/08/06 13:25:36;;;;;;;0.88;0.60;;;;;;;;;;5054344;28;20213;-70
2023/08/06 13:28:05;;;;;;;3.92;0.70;;;;;;;;;;5056122;28;20210;-72
2023/08/06 13:30:32;;;;;;;0.93;0.52;;;;;;;;;;5059028;28;20210;-71
2023/08/06 13:32:59;;;;;;;0.50;0.50;;;;;;;;;;5058890;28;20213;-72
2023/08/06 13:35:27;;;;;;;0.52;0.52;;;;;;;;;;5056640;28;20204;-71
2023/08/06 13:37:55;;;;;;;1.25;0.68;;;;;;;;;;5060028;28;20211;-71
2023/08/06 13:40:22;;;;;;;0.93;0.73;;;;;;;;;;5060106;28;20241;-71
2023/08/06 13:42:49;;;;;;;1.42;0.60;;;;;;;;;;5060462;28;20202;-72
2023/08/06 13:45:17;;;;;;;1.10;0.60;;;;;;;;;;5061351;28;20215;-71
2023/08/06 13:47:45;;;;;;;1.98;0.80;;;;;;;;;;5051912;28;20238;-69
2023/08/06 13:50:12;;;;;;;0.60;0.60;;;;;;;;;;5056581;28;20207;-71
2023/08/06 13:52:39;;;;;;;0.70;0.68;;;;;;;;;;5053209;28;20208;-71
2023/08/06 13:55:06;;;;;;;0.70;0.70;;;;;;;;;;5053118;28;20247;-69
2023/08/06 13:57:34;;;;;;;0.80;0.80;;;;;;;;;;5058521;28;20216;-71
2023/08/06 14:00:01;;;;;;;0.70;0.70;;;;;;;;;;5060664;28;20207;-71
2023/08/06 14:02:29;;;;;;;0.80;0.63;;;;;;;;;;5058536;28;20233;-70
2023/08/06 14:04:57;;;;;;;0.88;0.68;;;;;;;;;;5060931;28;20211;-71
2023/08/06 14:07:24;;;;;;;0.70;0.63;;;;;;;;;;5061449;28;20261;-70
2023/08/06 14:09:51;;;;;;;1.75;0.80;;;;;;;;;;5057297;28;20214;-70
2023/08/06 14:12:18;;;;;;;0.75;0.73;;;;;;;;;;5057732;28;20208;-70
2023/08/06 14:14:45;;;;;;;1.45;0.90;;;;;;;;;;5061390;28;20230;-70
2023/08/06 14:17:13;;;;;;;0.77;0.77;;;;;;;;;;5062121;28;20203;-71
2023/08/06 14:19:41;;;;;;;0.90;0.77;;;;;;;;;;5062266;28;20207;-70
2023/08/06 14:22:08;;;;;;;1.20;0.98;;;;;;;;;;5060300;28;20214;-70
2023/08/06 14:24:36;;;;;;;1.42;0.85;;;;;;;;;;5054830;28;20199;-71
2023/08/06 14:27:03;;;;;;;0.90;0.80;;;;;;;;;;5059902;28;20207;-72
2023/08/06 14:29:31;;;;;;;1.13;1.00;;;;;;;;;;5051152;28;20211;-71
2023/08/06 14:31:58;;;;;;;0.95;0.82;;;;;;;;;;5060935;28;20217;-72
2023/08/06 14:34:25;;;;;;;2.13;1.17;;;;;;;;;;5063307;28;20312;-70
2023/08/06 14:36:53;;;;;;;2.10;1.98;;;;;;;;;;5063366;28;20212;-71
2023/08/06 14:39:21;;;;;;;1.98;1.30;;;;;;;;;;5051930;28;20199;-71
2023/08/06 14:41:48;;;;;;;3.78;1.20;;;;;;;;;;5051878;28;20298;-70
2023/08/06 14:44:15;;;;;;;1.33;0.90;;;;;;;;;;5060320;28;20199;-71
2023/08/06 14:46:42;;;;;;;1.88;1.10;;;;;;;;;;5058429;28;20203;-71